createdAt,value
2018-08-22T00:00:26.354Z,93.30
2018-08-22T00:02:55.009Z,93.20
2018-08-22T00:05:23.869Z,93.10
2018-08-22T00:07:52.546Z,93.30
2018-08-22T00:10:21.112Z,93.70
2018-08-22T00:12:50.198Z,93.60
2018-08-22T00:15:19.808Z,93.60
2018-08-22T00:17:49.369Z,93.70
2018-08-22T00:20:18.849Z,93.60
2018-08-22T00:22:47.529Z,93.70
2018-08-22T00:25:16.347Z,93.70
2018-08-22T00:27:44.833Z,93.70
2018-08-22T00:30:13.257Z,93.70
2018-08-22T00:32:41.728Z,93.80
2018-08-22T00:35:10.171Z,93.80
2018-08-22T00:37:38.608Z,93.90
2018-08-22T00:40:07.042Z,93.90
2018-08-22T00:42:35.485Z,94.10
2018-08-22T00:45:04.001Z,94.10
2018-08-22T00:47:32.442Z,94.10
2018-08-22T00:50:00.884Z,94.00
2018-08-22T00:52:29.334Z,94.30
2018-08-22T00:54:57.760Z,93.90
2018-08-22T00:57:26.230Z,93.90
2018-08-22T00:59:54.675Z,93.90
2018-08-22T01:02:23.116Z,94.00
2018-08-22T01:04:51.558Z,94.30
2018-08-22T01:07:20.009Z,94.00
2018-08-22T01:09:48.432Z,93.90
2018-08-22T01:12:16.910Z,93.90
2018-08-22T01:14:45.334Z,94.00
2018-08-22T01:17:13.802Z,93.90
2018-08-22T01:19:42.240Z,93.90
2018-08-22T01:22:10.684Z,93.90
2018-08-22T01:24:39.194Z,93.90
2018-08-22T01:27:07.708Z,94.00
2018-08-22T01:29:36.182Z,94.00
2018-08-22T01:32:04.626Z,94.00
2018-08-22T01:34:33.029Z,94.10
2018-08-22T01:37:01.479Z,94.10
2018-08-22T01:39:29.911Z,94.20
2018-08-22T01:41:58.338Z,94.20
2018-08-22T01:44:26.816Z,94.20
2018-08-22T01:46:55.241Z,94.20
2018-08-22T01:49:23.716Z,94.40
2018-08-22T01:51:52.192Z,94.40
2018-08-22T01:54:20.649Z,94.40
2018-08-22T01:56:49.083Z,94.50
2018-08-22T01:59:17.545Z,94.50
2018-08-22T02:01:45.979Z,94.60
2018-08-22T02:04:14.405Z,94.60
2018-08-22T02:06:42.901Z,94.70
2018-08-22T02:09:12.437Z,94.70
2018-08-22T02:11:41.231Z,94.70
2018-08-22T02:14:10.521Z,94.80
2018-08-22T02:16:38.976Z,95.20
2018-08-22T02:19:08.421Z,94.90
2018-08-22T02:21:37.129Z,94.90
2018-08-22T02:24:05.709Z,94.80
2018-08-22T02:26:34.682Z,94.80
2018-08-22T02:29:03.351Z,94.80
2018-08-22T02:31:31.832Z,94.80
2018-08-22T02:34:00.261Z,94.80
2018-08-22T02:36:28.827Z,94.80
2018-08-22T02:38:57.259Z,94.80
2018-08-22T02:41:25.756Z,94.80
2018-08-22T02:43:54.160Z,94.80
2018-08-22T02:46:22.579Z,94.90
2018-08-22T02:48:56.214Z,95.00
2018-08-22T02:51:25.216Z,95.00
2018-08-22T02:53:53.667Z,95.10
2018-08-22T02:56:22.492Z,95.00
2018-08-22T02:58:50.964Z,95.00
2018-08-22T03:01:19.642Z,95.00
2018-08-22T03:03:48.089Z,95.00
2018-08-22T03:06:16.510Z,95.10
2018-08-22T03:08:44.958Z,95.20
2018-08-22T03:11:13.392Z,95.10
2018-08-22T03:13:41.840Z,95.00
2018-08-22T03:16:10.322Z,95.00
2018-08-22T03:18:38.770Z,95.00
2018-08-22T03:21:07.184Z,95.00
2018-08-22T03:23:35.622Z,95.00
2018-08-22T03:26:04.105Z,95.10
2018-08-22T03:28:32.522Z,95.10
2018-08-22T03:31:00.942Z,95.10
2018-08-22T03:33:29.419Z,95.20
2018-08-22T03:35:57.895Z,95.20
2018-08-22T03:38:26.329Z,95.20
2018-08-22T03:40:54.797Z,95.30
2018-08-22T03:43:23.238Z,95.30
2018-08-22T03:45:51.681Z,95.40
2018-08-22T03:48:20.147Z,95.40
2018-08-22T03:50:48.588Z,95.40
2018-08-22T03:53:17.024Z,95.40
2018-08-22T03:55:45.462Z,95.50
2018-08-22T03:58:13.923Z,95.50
2018-08-22T04:00:42.462Z,95.50
2018-08-22T04:03:10.964Z,95.60
2018-08-22T04:05:39.452Z,95.50
2018-08-22T04:08:07.955Z,95.60
2018-08-22T04:10:36.433Z,95.60
2018-08-22T04:13:04.885Z,95.70
2018-08-22T04:15:33.342Z,95.60
2018-08-22T04:18:01.829Z,95.70
2018-08-22T04:20:30.293Z,95.70
2018-08-22T04:22:58.767Z,95.80
2018-08-22T04:25:27.291Z,95.70
2018-08-22T04:27:55.769Z,95.60
2018-08-22T04:30:24.221Z,95.50
2018-08-22T04:32:52.696Z,95.40
2018-08-22T04:35:21.241Z,95.30
2018-08-22T04:37:49.963Z,95.10
2018-08-22T04:40:18.669Z,95.00
2018-08-22T04:42:47.160Z,94.90
2018-08-22T04:45:15.631Z,94.70
2018-08-22T04:47:44.081Z,94.60
2018-08-22T04:50:12.535Z,94.50
2018-08-22T04:52:41.002Z,94.40
2018-08-22T04:55:09.594Z,94.30
2018-08-22T04:57:38.032Z,94.00
2018-08-22T05:00:07.294Z,94.30
2018-08-22T05:02:35.757Z,94.00
2018-08-22T05:05:04.542Z,94.00
2018-08-22T05:07:33.034Z,93.90
2018-08-22T05:10:01.485Z,93.80
2018-08-22T05:12:30.093Z,93.90
2018-08-22T05:14:58.651Z,93.90
2018-08-22T05:17:27.086Z,93.70
2018-08-22T05:19:55.548Z,93.60
2018-08-22T05:22:23.979Z,93.50
2018-08-22T05:24:52.462Z,93.70
2018-08-22T05:27:20.922Z,93.60
2018-08-22T05:29:49.372Z,93.50
2018-08-22T05:32:17.842Z,93.70
2018-08-22T05:34:46.278Z,93.70
2018-08-22T05:37:14.774Z,93.40
2018-08-22T05:39:43.218Z,93.20
2018-08-22T05:42:11.692Z,93.40
2018-08-22T05:44:40.170Z,93.50
2018-08-22T05:47:08.636Z,93.30
2018-08-22T05:49:37.102Z,93.20
2018-08-22T05:52:05.550Z,93.10
2018-08-22T05:54:33.992Z,93.00
2018-08-22T05:57:02.423Z,93.50
2018-08-22T05:59:30.870Z,93.10
2018-08-22T06:01:59.367Z,93.00
2018-08-22T06:04:27.848Z,93.00
2018-08-22T06:06:56.278Z,93.00
2018-08-22T06:09:24.734Z,92.90
2018-08-22T06:11:53.182Z,92.80
2018-08-22T06:14:21.665Z,92.90
2018-08-22T06:16:50.094Z,92.70
2018-08-22T06:19:18.571Z,92.60
2018-08-22T06:21:47.077Z,92.60
2018-08-22T06:24:15.537Z,92.70
2018-08-22T06:26:44.019Z,92.40
2018-08-22T06:29:12.515Z,92.30
2018-08-22T06:31:40.984Z,92.40
2018-08-22T06:34:09.449Z,92.30
2018-08-22T06:36:37.898Z,92.20
2018-08-22T06:39:08.998Z,92.10
2018-08-22T06:41:37.742Z,92.00
2018-08-22T06:44:06.308Z,91.90
2018-08-22T06:46:34.727Z,92.00
2018-08-22T06:49:03.249Z,91.90
2018-08-22T06:51:31.719Z,91.80
2018-08-22T06:54:00.205Z,91.60
2018-08-22T06:56:28.651Z,91.40
2018-08-22T06:58:57.097Z,91.30
2018-08-22T07:01:25.548Z,91.40
2018-08-22T07:03:54.115Z,91.30
2018-08-22T07:06:22.564Z,91.20
2018-08-22T07:08:51.025Z,91.20
2018-08-22T07:11:19.500Z,91.20
2018-08-22T07:13:47.928Z,91.20
2018-08-22T07:16:16.389Z,90.90
2018-08-22T07:18:44.846Z,91.00
2018-08-22T07:21:13.319Z,91.00
2018-08-22T07:23:41.784Z,90.60
2018-08-22T07:26:10.229Z,90.70
2018-08-22T07:28:38.667Z,90.70
2018-08-22T07:31:07.111Z,90.40
2018-08-22T07:33:35.583Z,90.50
2018-08-22T07:36:04.140Z,90.40
2018-08-22T07:38:32.565Z,90.30
2018-08-22T07:41:01.032Z,90.20
2018-08-22T07:43:29.475Z,90.00
2018-08-22T07:45:57.897Z,89.30
2018-08-22T07:48:26.368Z,89.00
2018-08-22T07:50:54.824Z,87.90
2018-08-22T07:53:23.398Z,87.80
2018-08-22T07:55:51.806Z,87.90
2018-08-22T07:58:20.298Z,87.30
2018-08-22T08:00:48.801Z,87.10
2018-08-22T08:03:17.282Z,86.10
2018-08-22T08:05:45.760Z,85.60
2018-08-22T08:08:14.229Z,85.70
2018-08-22T08:10:42.658Z,86.50
2018-08-22T08:13:16.782Z,85.90
2018-08-22T08:15:45.255Z,85.90
2018-08-22T08:18:13.752Z,86.30
2018-08-22T08:20:42.252Z,86.00
2018-08-22T08:23:10.704Z,85.70
2018-08-22T08:25:39.143Z,85.50
2018-08-22T08:28:07.611Z,86.00
2018-08-22T08:30:36.080Z,87.00
2018-08-22T08:33:04.567Z,87.60
2018-08-22T08:35:33.014Z,87.70
2018-08-22T08:38:01.464Z,86.70
2018-08-22T08:40:29.925Z,86.20
2018-08-22T08:42:58.457Z,85.70
2018-08-22T08:45:26.907Z,85.00
2018-08-22T08:47:55.390Z,84.90
2018-08-22T08:50:23.839Z,85.00
2018-08-22T08:52:52.276Z,84.40
2018-08-22T08:55:20.714Z,84.70
2018-08-22T08:57:49.183Z,85.10
2018-08-22T09:00:17.715Z,84.20
2018-08-22T09:02:46.210Z,83.80
2018-08-22T09:05:14.671Z,83.40
2018-08-22T09:07:43.118Z,83.30
2018-08-22T09:10:11.560Z,84.40
2018-08-22T09:12:40.062Z,84.60
2018-08-22T09:15:08.578Z,83.80
2018-08-22T09:17:37.068Z,83.00
2018-08-22T09:20:06.592Z,82.60
2018-08-22T09:22:35.073Z,82.80
2018-08-22T09:25:03.572Z,83.20
2018-08-22T09:27:32.019Z,82.90
2018-08-22T09:30:00.548Z,82.90
2018-08-22T09:32:28.958Z,81.80
2018-08-22T09:34:57.458Z,81.60
2018-08-22T09:37:25.909Z,80.30
2018-08-22T09:39:54.397Z,80.60
2018-08-22T09:42:22.912Z,80.30
2018-08-22T09:44:51.355Z,79.70
2018-08-22T09:47:19.807Z,79.90
2018-08-22T09:49:48.369Z,79.60
2018-08-22T09:52:16.844Z,79.10
2018-08-22T09:54:56.493Z,78.80
2018-08-22T09:57:26.091Z,79.30
2018-08-22T09:59:54.577Z,78.70
2018-08-22T10:02:23.113Z,79.10
2018-08-22T10:04:51.725Z,79.10
2018-08-22T10:07:20.235Z,79.20
2018-08-22T10:09:48.637Z,78.70
2018-08-22T10:12:17.133Z,79.50
2018-08-22T10:14:45.563Z,78.60
2018-08-22T10:17:14.232Z,78.10
2018-08-22T10:19:42.829Z,78.00
2018-08-22T10:22:11.501Z,78.90
2018-08-22T10:24:39.908Z,78.60
2018-08-22T10:27:08.479Z,78.60
2018-08-22T10:29:36.907Z,78.50
2018-08-22T10:32:05.357Z,78.50
2018-08-22T10:34:34.017Z,79.00
2018-08-22T10:37:09.149Z,79.50
2018-08-22T10:39:44.392Z,78.70
2018-08-22T10:42:12.845Z,78.10
2018-08-22T10:44:41.313Z,78.60
2018-08-22T10:47:09.768Z,78.20
2018-08-22T10:49:38.263Z,78.60
2018-08-22T10:52:06.739Z,78.00
2018-08-22T10:54:35.222Z,78.20
2018-08-22T10:57:03.682Z,77.80
2018-08-22T10:59:32.150Z,78.10
2018-08-22T11:02:00.661Z,77.10
2018-08-22T11:04:29.193Z,77.40
2018-08-22T11:06:57.700Z,77.30
2018-08-22T11:09:26.153Z,75.60
2018-08-22T11:11:54.622Z,74.60
2018-08-22T11:14:23.131Z,75.00
2018-08-22T11:16:51.578Z,74.70
2018-08-22T11:19:20.003Z,74.20
2018-08-22T11:21:59.701Z,73.20
2018-08-22T11:24:39.400Z,72.90
2018-08-22T11:27:19.122Z,71.90
2018-08-22T11:29:58.861Z,72.50
2018-08-22T11:32:38.640Z,73.30
2018-08-22T11:35:05.988Z,73.40
2018-08-22T11:37:34.464Z,72.30
2018-08-22T11:40:02.972Z,71.50
2018-08-22T11:42:31.423Z,69.80
2018-08-22T11:44:59.847Z,71.30
2018-08-22T11:47:28.307Z,70.50
2018-08-22T11:49:56.748Z,67.30
2018-08-22T11:52:25.220Z,67.50
2018-08-22T11:54:53.712Z,68.40
2018-08-22T11:57:22.181Z,68.80
2018-08-22T11:59:50.641Z,70.10
2018-08-22T12:02:19.099Z,69.30
2018-08-22T12:04:47.562Z,69.00
2018-08-22T12:07:16.045Z,69.20
2018-08-22T12:09:44.458Z,69.70
2018-08-22T12:12:12.882Z,69.00
2018-08-22T12:14:41.388Z,68.60
2018-08-22T12:17:09.864Z,69.80
2018-08-22T12:19:38.317Z,71.40
2018-08-22T12:22:06.733Z,72.10
2018-08-22T12:24:35.195Z,70.90
2018-08-22T12:27:03.677Z,70.80
2018-08-22T12:29:32.133Z,71.20
2018-08-22T12:32:00.588Z,70.70
2018-08-22T12:34:29.018Z,69.30
2018-08-22T12:36:57.501Z,69.00
2018-08-22T12:39:25.955Z,68.80
2018-08-22T12:41:54.398Z,69.10
2018-08-22T12:44:22.880Z,68.90
2018-08-22T12:46:51.329Z,69.80
2018-08-22T12:49:19.806Z,69.60
2018-08-22T12:51:48.254Z,68.70
2018-08-22T12:54:16.676Z,68.90
2018-08-22T12:56:45.125Z,69.20
2018-08-22T12:59:13.596Z,69.40
2018-08-22T13:01:42.047Z,67.10
2018-08-22T13:04:10.487Z,67.50
2018-08-22T13:06:39.010Z,68.10
2018-08-22T13:09:08.906Z,69.20
2018-08-22T13:11:37.456Z,69.70
2018-08-22T13:14:05.974Z,69.90
2018-08-22T13:16:34.396Z,70.60
2018-08-22T13:19:02.876Z,70.80
2018-08-22T13:21:31.304Z,70.00
2018-08-22T13:23:59.883Z,70.20
2018-08-22T13:26:28.325Z,70.30
2018-08-22T13:28:56.772Z,70.90
2018-08-22T13:31:25.256Z,70.60
2018-08-22T13:33:53.714Z,70.40
2018-08-22T13:36:22.174Z,70.00
2018-08-22T13:38:50.638Z,70.10
2018-08-22T13:41:19.111Z,67.60
2018-08-22T13:43:47.577Z,66.20
2018-08-22T13:46:16.088Z,64.50
2018-08-22T13:48:44.587Z,64.50
2018-08-22T13:51:13.038Z,65.80
2018-08-22T13:53:41.606Z,65.20
2018-08-22T13:56:10.104Z,65.20
2018-08-22T13:58:38.609Z,63.90
2018-08-22T14:01:07.104Z,63.10
2018-08-22T14:03:35.591Z,63.00
2018-08-22T14:06:04.191Z,63.40
2018-08-22T14:08:32.810Z,63.30
2018-08-22T14:11:01.316Z,63.70
2018-08-22T14:13:29.879Z,63.90
2018-08-22T14:15:58.455Z,63.90
2018-08-22T14:18:26.919Z,65.00
2018-08-22T14:20:55.423Z,65.60
2018-08-22T14:23:23.931Z,64.80
2018-08-22T14:25:52.384Z,63.20
2018-08-22T14:28:20.972Z,62.30
2018-08-22T14:30:49.357Z,61.10
2018-08-22T14:33:18.839Z,60.30
2018-08-22T14:35:47.299Z,58.90
2018-08-22T14:38:15.885Z,58.60
2018-08-22T14:40:44.369Z,58.60
2018-08-22T14:43:12.865Z,57.90
2018-08-22T14:45:41.504Z,56.90
2018-08-22T14:48:10.058Z,56.50
2018-08-22T14:50:38.652Z,56.70
2018-08-22T14:53:07.139Z,55.60
2018-08-22T14:55:35.680Z,54.80
2018-08-22T14:58:04.207Z,54.20
2018-08-22T15:00:34.165Z,54.90
2018-08-22T15:03:02.965Z,55.70
2018-08-22T15:05:31.145Z,56.00
2018-08-22T15:07:59.663Z,56.70
2018-08-22T15:10:28.166Z,57.50
2018-08-22T15:12:56.661Z,57.70
2018-08-22T15:15:25.116Z,57.90
2018-08-22T15:17:53.588Z,58.50
2018-08-22T15:20:22.259Z,57.40
2018-08-22T15:22:50.827Z,57.50
2018-08-22T15:25:19.337Z,58.40
2018-08-22T15:27:47.935Z,58.50
2018-08-22T15:30:16.459Z,59.30
2018-08-22T15:32:45.019Z,59.00
2018-08-22T15:35:13.481Z,60.50
2018-08-22T15:37:41.997Z,60.70
2018-08-22T15:40:10.609Z,59.90
2018-08-22T15:42:39.135Z,59.70
2018-08-22T15:45:07.688Z,58.80
2018-08-22T15:47:36.230Z,59.60
2018-08-22T15:50:05.996Z,60.30
2018-08-22T15:52:34.533Z,59.90
2018-08-22T15:55:12.413Z,60.80
2018-08-22T15:57:55.353Z,61.60
2018-08-22T16:00:33.641Z,62.00
2018-08-22T16:03:03.616Z,62.10
2018-08-22T16:05:32.635Z,61.70
2018-08-22T16:08:01.237Z,61.60
2018-08-22T16:10:30.169Z,62.00
2018-08-22T16:12:58.682Z,60.90
2018-08-22T16:15:27.957Z,60.90
2018-08-22T16:17:57.553Z,61.00
2018-08-22T16:20:26.944Z,61.90
2018-08-22T16:22:55.602Z,63.10
2018-08-22T16:25:28.785Z,63.10
2018-08-22T16:27:57.284Z,62.80
2018-08-22T16:30:25.983Z,61.60
2018-08-22T16:32:55.792Z,62.10
2018-08-22T16:35:24.274Z,62.80
2018-08-22T16:38:02.002Z,62.80
2018-08-22T16:40:35.140Z,62.70
2018-08-22T16:43:03.798Z,63.00
2018-08-22T16:45:33.458Z,64.40
2018-08-22T16:48:01.988Z,64.70
2018-08-22T16:50:30.464Z,64.40
2018-08-22T16:52:58.942Z,64.80
2018-08-22T16:55:27.441Z,65.20
2018-08-22T16:57:55.955Z,65.20
2018-08-22T17:00:29.580Z,65.50
2018-08-22T17:02:58.633Z,65.50
2018-08-22T17:05:27.138Z,66.10
2018-08-22T17:07:56.552Z,65.90
2018-08-22T17:10:26.962Z,66.80
2018-08-22T17:12:55.557Z,66.70
2018-08-22T17:15:24.109Z,66.80
2018-08-22T17:17:52.571Z,67.50
2018-08-22T17:20:21.083Z,66.80
2018-08-22T17:22:49.623Z,66.70
2018-08-22T17:25:18.169Z,67.20
2018-08-22T17:27:46.645Z,67.50
2018-08-22T17:30:18.621Z,67.50
2018-08-22T17:32:47.131Z,67.80
2018-08-22T17:35:15.571Z,68.10
2018-08-22T17:38:01.425Z,68.30
2018-08-22T17:40:29.991Z,68.40
2018-08-22T17:42:58.530Z,68.90
2018-08-22T17:45:33.413Z,68.60
2018-08-22T17:48:02.900Z,68.70
2018-08-22T17:50:31.413Z,68.90
2018-08-22T17:53:00.366Z,69.10
2018-08-22T17:55:29.063Z,69.70
2018-08-22T17:57:57.503Z,69.70
2018-08-22T18:00:26.768Z,70.10
2018-08-22T18:02:55.242Z,70.50
2018-08-22T18:05:23.693Z,70.70
2018-08-22T18:07:52.166Z,70.90
2018-08-22T18:10:20.647Z,70.70
2018-08-22T18:12:49.184Z,71.20
2018-08-22T18:15:17.675Z,71.70
2018-08-22T18:17:48.558Z,72.20
2018-08-22T18:20:17.092Z,73.30
2018-08-22T18:22:45.630Z,75.60
2018-08-22T18:25:15.116Z,77.10
2018-08-22T18:27:43.882Z,77.90
2018-08-22T18:30:13.160Z,78.80
2018-08-22T18:32:41.861Z,79.50
2018-08-22T18:35:11.270Z,80.00
2018-08-22T18:37:40.407Z,80.50
2018-08-22T18:40:20.688Z,81.00
2018-08-22T18:42:56.074Z,81.30
2018-08-22T18:45:25.300Z,82.10
2018-08-22T18:47:53.758Z,82.70
2018-08-22T18:50:22.362Z,83.20
2018-08-22T18:52:52.978Z,83.40
2018-08-22T18:55:22.765Z,84.00
2018-08-22T18:57:51.414Z,84.40
2018-08-22T19:00:19.988Z,85.00
2018-08-22T19:02:50.991Z,85.40
2018-08-22T19:05:23.578Z,86.00
2018-08-22T19:07:59.612Z,86.10
2018-08-22T19:10:32.454Z,86.80
2018-08-22T19:13:05.225Z,86.60
2018-08-22T19:15:34.263Z,87.10
2018-08-22T19:18:05.333Z,87.80
2018-08-22T19:20:33.918Z,87.50
2018-08-22T19:23:02.751Z,88.20
2018-08-22T19:25:31.296Z,88.40
2018-08-22T19:28:00.723Z,88.60
2018-08-22T19:30:29.225Z,89.20
2018-08-22T19:32:57.707Z,89.40
2018-08-22T19:35:26.207Z,89.70
2018-08-22T19:38:04.153Z,89.60
2018-08-22T19:40:32.736Z,89.00
2018-08-22T19:43:01.585Z,88.80
2018-08-22T19:45:30.066Z,88.50
2018-08-22T19:47:58.557Z,88.20
2018-08-22T19:50:27.103Z,88.00
2018-08-22T19:52:55.582Z,87.80
2018-08-22T19:55:24.059Z,87.80
2018-08-22T19:57:52.539Z,87.20
2018-08-22T20:00:20.981Z,87.10
2018-08-22T20:02:49.436Z,86.80
2018-08-22T20:05:17.911Z,86.90
2018-08-22T20:07:46.344Z,86.80
2018-08-22T20:10:14.884Z,86.90
2018-08-22T20:12:46.194Z,86.90
2018-08-22T20:15:14.677Z,87.00
2018-08-22T20:17:46.912Z,87.00
2018-08-22T20:20:15.518Z,86.80
2018-08-22T20:22:45.259Z,86.70
2018-08-22T20:25:14.030Z,86.70
2018-08-22T20:27:42.482Z,86.80
2018-08-22T20:30:12.658Z,87.10
2018-08-22T20:32:53.791Z,87.00
2018-08-22T20:35:30.382Z,87.20
2018-08-22T20:38:00.087Z,87.40
2018-08-22T20:40:28.766Z,87.50
2018-08-22T20:42:57.260Z,87.70
2018-08-22T20:45:31.006Z,88.10
2018-08-22T20:48:04.947Z,88.40
2018-08-22T20:50:34.080Z,88.30
2018-08-22T20:53:03.872Z,88.60
2018-08-22T20:55:33.607Z,88.80
2018-08-22T20:58:03.981Z,89.00
2018-08-22T21:00:33.853Z,88.90
2018-08-22T21:03:02.443Z,89.10
2018-08-22T21:05:30.883Z,89.20
2018-08-22T21:07:59.381Z,89.40
2018-08-22T21:10:27.828Z,89.70
2018-08-22T21:12:56.291Z,89.80
2018-08-22T21:15:24.748Z,90.00
2018-08-22T21:17:53.224Z,90.20
2018-08-22T21:20:23.612Z,90.30
2018-08-22T21:22:52.705Z,90.40
2018-08-22T21:25:21.169Z,90.60
2018-08-22T21:27:50.169Z,90.80
2018-08-22T21:30:18.720Z,90.90
2018-08-22T21:32:48.145Z,91.00
2018-08-22T21:35:33.000Z,91.10
2018-08-22T21:38:08.572Z,91.10
2018-08-22T21:40:37.010Z,91.30
2018-08-22T21:43:05.512Z,91.30
2018-08-22T21:45:33.958Z,91.40
2018-08-22T21:48:13.774Z,91.40
2018-08-22T21:50:43.055Z,91.40
2018-08-22T21:53:11.510Z,91.80
2018-08-22T21:55:41.132Z,91.50
2018-08-22T21:58:10.232Z,91.60
2018-08-22T22:00:38.817Z,91.80
2018-08-22T22:03:07.739Z,91.80
2018-08-22T22:05:54.519Z,92.00
2018-08-22T22:08:23.404Z,92.10
2018-08-22T22:10:58.425Z,92.10
2018-08-22T22:13:26.926Z,92.20
2018-08-22T22:15:58.055Z,92.30
2018-08-22T22:18:26.659Z,92.30
2018-08-22T22:21:06.973Z,92.40
2018-08-22T22:23:40.941Z,92.50
2018-08-22T22:26:09.422Z,92.50
2018-08-22T22:28:37.899Z,92.50
2018-08-22T22:31:09.112Z,92.60
2018-08-22T22:33:39.223Z,92.60
2018-08-22T22:36:07.661Z,92.80
2018-08-22T22:38:36.123Z,92.80
2018-08-22T22:41:04.543Z,92.80
2018-08-22T22:43:32.981Z,92.80
2018-08-22T22:46:01.465Z,92.90
2018-08-22T22:48:37.126Z,92.90
2018-08-22T22:51:06.066Z,92.90
2018-08-22T22:53:34.825Z,92.90
2018-08-22T22:56:03.318Z,93.00
2018-08-22T22:58:33.856Z,92.90
2018-08-22T23:01:02.335Z,93.00
2018-08-22T23:03:30.765Z,93.00
2018-08-22T23:05:59.214Z,93.00
2018-08-22T23:08:27.661Z,92.90
2018-08-22T23:10:56.166Z,93.00
2018-08-22T23:13:26.670Z,93.10
2018-08-22T23:15:55.098Z,93.10
2018-08-22T23:18:23.656Z,93.20
2018-08-22T23:20:52.896Z,93.20
2018-08-22T23:23:32.898Z,93.30
2018-08-22T23:26:08.592Z,93.30
2018-08-22T23:28:37.022Z,93.30
2018-08-22T23:31:05.491Z,93.40
2018-08-22T23:33:33.941Z,93.40
2018-08-22T23:36:02.412Z,93.60
2018-08-22T23:38:33.077Z,93.60
2018-08-22T23:41:02.282Z,93.60
2018-08-22T23:43:40.705Z,93.60
2018-08-22T23:46:10.615Z,93.70
2018-08-22T23:48:39.507Z,93.70
2018-08-22T23:51:10.971Z,93.80
2018-08-22T23:53:44.838Z,93.70
2018-08-22T23:56:19.519Z,93.70
2018-08-22T23:58:48.661Z,93.80
